<?xml version="1.0" encoding="UTF-8" standalone="no" ?>
<gpx xmlns="http://www.topografix.com/GPX/1/1" xmlns:xsi="http://www.w3.org/2001/XMLSchema-instance" xsi:schemaLocation="http://www.topografix.com/GPX/1/1 http://www.topografix.com/GPX/1/1/gpx.xsd" version="1.1" creator="VisuGPX - https://www.visugpx.com">
  <metadata>
    <name>circuits du Buchholz 1</name>
  </metadata>
  <trk>
    <name><![CDATA[Circuit Schierener Miehl - anneau vert]]></name>
    <extensions>
      <line xmlns="http://www.topografix.com/GPX/gpx_style/0/2">
        <color>414941</color>
        <opacity>0.3</opacity>
        <width>1</width>
      </line>
    </extensions>
    <trkseg>
      <trkpt lat="49.08449" lon="7.06665">
        <ele>217.38297</ele>
        <time>2021-09-08T13:16:17.000Z</time>
      </trkpt>
      <trkpt lat="49.08504" lon="7.06593">
        <ele>217.225</ele>
        <time>2021-09-08T13:16:43.000Z</time>
      </trkpt>
      <trkpt lat="49.08522" lon="7.06616">
        <ele>217.34403</ele>
        <time>2021-09-08T13:16:52.000Z</time>
      </trkpt>
      <trkpt lat="49.0854" lon="7.06619">
        <ele>217.6154</ele>
        <time>2021-09-08T13:17:03.000Z</time>
      </trkpt>
      <trkpt lat="49.08575" lon="7.06627">
        <ele>217.93979</ele>
        <time>2021-09-08T13:17:15.000Z</time>
      </trkpt>
      <trkpt lat="49.08643" lon="7.06617">
        <ele>218.8595</ele>
        <time>2021-09-08T13:17:21.000Z</time>
      </trkpt>
      <trkpt lat="49.08678" lon="7.06602">
        <ele>218.77932</ele>
        <time>2021-09-08T13:17:27.000Z</time>
      </trkpt>
      <trkpt lat="49.08769" lon="7.06558">
        <ele>217.42006</ele>
        <time>2021-09-08T13:17:36.000Z</time>
      </trkpt>
      <trkpt lat="49.08799" lon="7.06559">
        <ele>218.88875</ele>
        <time>2021-09-08T13:17:44.000Z</time>
      </trkpt>
      <trkpt lat="49.08807" lon="7.06523">
        <ele>218.84229</ele>
        <time>2021-09-08T13:18:02.000Z</time>
      </trkpt>
      <trkpt lat="49.08808" lon="7.0651">
        <ele>218.67267</ele>
        <time>2021-09-08T13:18:12.000Z</time>
      </trkpt>
      <trkpt lat="49.0881" lon="7.06498">
        <ele>218.62392</ele>
        <time>2021-09-08T13:18:20.000Z</time>
      </trkpt>
      <trkpt lat="49.08824" lon="7.06484">
        <ele>219.02703</ele>
        <time>2021-09-08T13:18:36.000Z</time>
      </trkpt>
      <trkpt lat="49.08828" lon="7.06475">
        <ele>219.11318</ele>
        <time>2021-09-08T13:18:47.000Z</time>
      </trkpt>
      <trkpt lat="49.08836" lon="7.06471">
        <ele>219.53286</ele>
        <time>2021-09-08T13:19:00.000Z</time>
      </trkpt>
      <trkpt lat="49.08844" lon="7.06468">
        <ele>220.04889</ele>
        <time>2021-09-08T13:19:14.000Z</time>
      </trkpt>
      <trkpt lat="49.08852" lon="7.06463">
        <ele>220.5787</ele>
        <time>2021-09-08T13:19:22.000Z</time>
      </trkpt>
      <trkpt lat="49.08877" lon="7.06457">
        <ele>222.90643</ele>
        <time>2021-09-08T13:19:41.000Z</time>
      </trkpt>
      <trkpt lat="49.08883" lon="7.0645">
        <ele>223.35992</ele>
        <time>2021-09-08T13:19:56.000Z</time>
      </trkpt>
      <trkpt lat="49.08891" lon="7.06447">
        <ele>224.07939</ele>
        <time>2021-09-08T13:20:18.000Z</time>
      </trkpt>
      <trkpt lat="49.08907" lon="7.06445">
        <ele>225.80991</ele>
        <time>2021-09-08T13:20:18.000Z</time>
      </trkpt>
      <trkpt lat="49.08924" lon="7.06437">
        <ele>227.424</ele>
        <time>2021-09-08T13:20:18.000Z</time>
      </trkpt>
      <trkpt lat="49.08932" lon="7.06437">
        <ele>228.37978</ele>
        <time>2021-09-08T13:20:18.000Z</time>
      </trkpt>
      <trkpt lat="49.08946" lon="7.06428">
        <ele>229.92279</ele>
        <time>2021-09-08T13:20:18.000Z</time>
      </trkpt>
      <trkpt lat="49.08955" lon="7.06424">
        <ele>230.94521</ele>
        <time>2021-09-08T13:20:18.000Z</time>
      </trkpt>
      <trkpt lat="49.08971" lon="7.06413">
        <ele>232.84137</ele>
        <time>2021-09-08T13:20:18.000Z</time>
      </trkpt>
      <trkpt lat="49.08983" lon="7.06397">
        <ele>234.10586</ele>
        <time>2021-09-08T13:20:18.000Z</time>
      </trkpt>
      <trkpt lat="49.09007" lon="7.06385">
        <ele>236.57283</ele>
        <time>2021-09-08T13:20:18.000Z</time>
      </trkpt>
      <trkpt lat="49.09015" lon="7.06386">
        <ele>237.48359</ele>
        <time>2021-09-08T13:20:24.000Z</time>
      </trkpt>
      <trkpt lat="49.09032" lon="7.06385">
        <ele>238.95468</ele>
        <time>2021-09-08T13:20:36.000Z</time>
      </trkpt>
      <trkpt lat="49.09049" lon="7.0638">
        <ele>239.98412</ele>
        <time>2021-09-08T13:20:51.000Z</time>
      </trkpt>
      <trkpt lat="49.09057" lon="7.06383">
        <ele>240.65894</ele>
        <time>2021-09-08T13:20:59.000Z</time>
      </trkpt>
      <trkpt lat="49.09082" lon="7.06383">
        <ele>241.87467</ele>
        <time>2021-09-08T13:21:22.000Z</time>
      </trkpt>
      <trkpt lat="49.09098" lon="7.06385">
        <ele>242.46033</ele>
        <time>2021-09-08T13:21:38.000Z</time>
      </trkpt>
      <trkpt lat="49.09106" lon="7.06382">
        <ele>242.44591</ele>
        <time>2021-09-08T13:21:45.000Z</time>
      </trkpt>
      <trkpt lat="49.09114" lon="7.06384">
        <ele>242.6566</ele>
        <time>2021-09-08T13:21:52.000Z</time>
      </trkpt>
      <trkpt lat="49.09148" lon="7.06382">
        <ele>242.59852</ele>
        <time>2021-09-08T13:22:17.000Z</time>
      </trkpt>
      <trkpt lat="49.09164" lon="7.06383">
        <ele>242.76159</ele>
        <time>2021-09-08T13:22:31.000Z</time>
      </trkpt>
      <trkpt lat="49.09172" lon="7.06382">
        <ele>242.78753</ele>
        <time>2021-09-08T13:22:37.000Z</time>
      </trkpt>
      <trkpt lat="49.09179" lon="7.06375">
        <ele>242.46548</ele>
        <time>2021-09-08T13:22:42.000Z</time>
      </trkpt>
      <trkpt lat="49.09195" lon="7.06381">
        <ele>243.06383</ele>
        <time>2021-09-08T13:23:02.000Z</time>
      </trkpt>
      <trkpt lat="49.09204" lon="7.06378">
        <ele>243.14168</ele>
        <time>2021-09-08T13:23:07.000Z</time>
      </trkpt>
      <trkpt lat="49.09212" lon="7.06382">
        <ele>243.51683</ele>
        <time>2021-09-08T13:23:13.000Z</time>
      </trkpt>
      <trkpt lat="49.0923" lon="7.06407">
        <ele>244.79169</ele>
        <time>2021-09-08T13:23:42.000Z</time>
      </trkpt>
      <trkpt lat="49.09237" lon="7.06411">
        <ele>245.06632</ele>
        <time>2021-09-08T13:23:51.000Z</time>
      </trkpt>
      <trkpt lat="49.09248" lon="7.06429">
        <ele>245.60892</ele>
        <time>2021-09-08T13:24:03.000Z</time>
      </trkpt>
      <trkpt lat="49.09268" lon="7.06445">
        <ele>246.12072</ele>
        <time>2021-09-08T13:24:25.000Z</time>
      </trkpt>
      <trkpt lat="49.09277" lon="7.06447">
        <ele>246.3504</ele>
        <time>2021-09-08T13:24:33.000Z</time>
      </trkpt>
      <trkpt lat="49.09284" lon="7.06453">
        <ele>246.49409</ele>
        <time>2021-09-08T13:24:39.000Z</time>
      </trkpt>
      <trkpt lat="49.09291" lon="7.06462">
        <ele>246.55457</ele>
        <time>2021-09-08T13:24:47.000Z</time>
      </trkpt>
      <trkpt lat="49.09299" lon="7.06467">
        <ele>246.6733</ele>
        <time>2021-09-08T13:24:55.000Z</time>
      </trkpt>
      <trkpt lat="49.09304" lon="7.06475">
        <ele>246.63954</ele>
        <time>2021-09-08T13:25:02.000Z</time>
      </trkpt>
      <trkpt lat="49.09318" lon="7.06487">
        <ele>246.73319</ele>
        <time>2021-09-08T13:25:19.000Z</time>
      </trkpt>
      <trkpt lat="49.09324" lon="7.06496">
        <ele>246.61442</ele>
        <time>2021-09-08T13:25:25.000Z</time>
      </trkpt>
      <trkpt lat="49.09331" lon="7.06501">
        <ele>246.74279</ele>
        <time>2021-09-08T13:25:42.000Z</time>
      </trkpt>
      <trkpt lat="49.09337" lon="7.06493">
        <ele>247.34098</ele>
        <time>2021-09-08T13:25:47.000Z</time>
      </trkpt>
      <trkpt lat="49.09342" lon="7.06468">
        <ele>248.30428</ele>
        <time>2021-09-08T13:26:05.000Z</time>
      </trkpt>
      <trkpt lat="49.09343" lon="7.06455">
        <ele>248.62116</ele>
        <time>2021-09-08T13:26:15.000Z</time>
      </trkpt>
      <trkpt lat="49.09351" lon="7.06451">
        <ele>249.01914</ele>
        <time>2021-09-08T13:26:23.000Z</time>
      </trkpt>
      <trkpt lat="49.09367" lon="7.0645">
        <ele>249.65606</ele>
        <time>2021-09-08T13:26:39.000Z</time>
      </trkpt>
      <trkpt lat="49.09384" lon="7.06455">
        <ele>250.13941</ele>
        <time>2021-09-08T13:26:57.000Z</time>
      </trkpt>
      <trkpt lat="49.09391" lon="7.06453">
        <ele>250.34369</ele>
        <time>2021-09-08T13:27:03.000Z</time>
      </trkpt>
      <trkpt lat="49.094" lon="7.06456">
        <ele>250.46783</ele>
        <time>2021-09-08T13:27:08.000Z</time>
      </trkpt>
      <trkpt lat="49.09407" lon="7.06462">
        <ele>250.4932</ele>
        <time>2021-09-08T13:27:16.000Z</time>
      </trkpt>
      <trkpt lat="49.09423" lon="7.06457">
        <ele>250.30609</ele>
        <time>2021-09-08T13:27:30.000Z</time>
      </trkpt>
      <trkpt lat="49.09431" lon="7.06457">
        <ele>250.04082</ele>
        <time>2021-09-08T13:27:36.000Z</time>
      </trkpt>
      <trkpt lat="49.09448" lon="7.06463">
        <ele>249.28395</ele>
        <time>2021-09-08T13:27:51.000Z</time>
      </trkpt>
      <trkpt lat="49.09455" lon="7.06462">
        <ele>248.81559</ele>
        <time>2021-09-08T13:28:01.000Z</time>
      </trkpt>
      <trkpt lat="49.09472" lon="7.06464">
        <ele>247.70848</ele>
        <time>2021-09-08T13:28:13.000Z</time>
      </trkpt>
      <trkpt lat="49.09487" lon="7.06477">
        <ele>246.61461</ele>
        <time>2021-09-08T13:28:24.000Z</time>
      </trkpt>
      <trkpt lat="49.09495" lon="7.06483">
        <ele>246.0041</ele>
        <time>2021-09-08T13:28:33.000Z</time>
      </trkpt>
      <trkpt lat="49.09509" lon="7.06499">
        <ele>244.92608</ele>
        <time>2021-09-08T13:28:49.000Z</time>
      </trkpt>
      <trkpt lat="49.09517" lon="7.06504">
        <ele>244.26107</ele>
        <time>2021-09-08T13:28:56.000Z</time>
      </trkpt>
      <trkpt lat="49.09532" lon="7.0651">
        <ele>242.92798</ele>
        <time>2021-09-08T13:29:10.000Z</time>
      </trkpt>
      <trkpt lat="49.09537" lon="7.0652">
        <ele>242.48582</ele>
        <time>2021-09-08T13:29:21.000Z</time>
      </trkpt>
      <trkpt lat="49.09543" lon="7.0651">
        <ele>242.00793</ele>
        <time>2021-09-08T13:30:25.000Z</time>
      </trkpt>
      <trkpt lat="49.09541" lon="7.06498">
        <ele>242.19599</ele>
        <time>2021-09-08T13:30:33.000Z</time>
      </trkpt>
      <trkpt lat="49.09547" lon="7.06489">
        <ele>241.71902</ele>
        <time>2021-09-08T13:30:49.000Z</time>
      </trkpt>
      <trkpt lat="49.09554" lon="7.06483">
        <ele>241.17546</ele>
        <time>2021-09-08T13:30:56.000Z</time>
      </trkpt>
      <trkpt lat="49.0956" lon="7.06474">
        <ele>240.88062</ele>
        <time>2021-09-08T13:31:02.000Z</time>
      </trkpt>
      <trkpt lat="49.09577" lon="7.0647">
        <ele>239.90339</ele>
        <time>2021-09-08T13:31:15.000Z</time>
      </trkpt>
      <trkpt lat="49.09594" lon="7.06473">
        <ele>239.23721</ele>
        <time>2021-09-08T13:31:34.000Z</time>
      </trkpt>
      <trkpt lat="49.09611" lon="7.06482">
        <ele>238.86582</ele>
        <time>2021-09-08T13:31:44.000Z</time>
      </trkpt>
      <trkpt lat="49.09616" lon="7.0649">
        <ele>238.70935</ele>
        <time>2021-09-08T13:31:50.000Z</time>
      </trkpt>
      <trkpt lat="49.09622" lon="7.06513">
        <ele>238.34865</ele>
        <time>2021-09-08T13:32:07.000Z</time>
      </trkpt>
      <trkpt lat="49.0963" lon="7.06521">
        <ele>238.36116</ele>
        <time>2021-09-08T13:32:14.000Z</time>
      </trkpt>
      <trkpt lat="49.09634" lon="7.06531">
        <ele>238.3453</ele>
        <time>2021-09-08T13:32:22.000Z</time>
      </trkpt>
      <trkpt lat="49.09631" lon="7.06543">
        <ele>238.21351</ele>
        <time>2021-09-08T13:32:27.000Z</time>
      </trkpt>
      <trkpt lat="49.09634" lon="7.06556">
        <ele>238.18531</ele>
        <time>2021-09-08T13:32:33.000Z</time>
      </trkpt>
      <trkpt lat="49.09639" lon="7.06565">
        <ele>238.23697</ele>
        <time>2021-09-08T13:32:41.000Z</time>
      </trkpt>
      <trkpt lat="49.09643" lon="7.06575">
        <ele>238.24264</ele>
        <time>2021-09-08T13:32:50.000Z</time>
      </trkpt>
      <trkpt lat="49.09645" lon="7.06588">
        <ele>238.13597</ele>
        <time>2021-09-08T13:32:56.000Z</time>
      </trkpt>
      <trkpt lat="49.09656" lon="7.06603">
        <ele>238.31743</ele>
        <time>2021-09-08T13:33:08.000Z</time>
      </trkpt>
      <trkpt lat="49.09665" lon="7.06608">
        <ele>238.61269</ele>
        <time>2021-09-08T13:33:17.000Z</time>
      </trkpt>
      <trkpt lat="49.09667" lon="7.0662">
        <ele>238.48664</ele>
        <time>2021-09-08T13:33:28.000Z</time>
      </trkpt>
      <trkpt lat="49.09673" lon="7.06629">
        <ele>238.5846</ele>
        <time>2021-09-08T13:33:35.000Z</time>
      </trkpt>
      <trkpt lat="49.09674" lon="7.06641">
        <ele>238.38734</ele>
        <time>2021-09-08T13:33:42.000Z</time>
      </trkpt>
      <trkpt lat="49.09684" lon="7.0666">
        <ele>238.60563</ele>
        <time>2021-09-08T13:33:55.000Z</time>
      </trkpt>
      <trkpt lat="49.09688" lon="7.06684">
        <ele>238.44313</ele>
        <time>2021-09-08T13:34:08.000Z</time>
      </trkpt>
      <trkpt lat="49.09688" lon="7.06696">
        <ele>238.17331</ele>
        <time>2021-09-08T13:34:16.000Z</time>
      </trkpt>
      <trkpt lat="49.0969" lon="7.06709">
        <ele>238.18111</ele>
        <time>2021-09-08T13:34:25.000Z</time>
      </trkpt>
      <trkpt lat="49.09697" lon="7.06717">
        <ele>238.73793</ele>
        <time>2021-09-08T13:34:30.000Z</time>
      </trkpt>
      <trkpt lat="49.09708" lon="7.06736">
        <ele>239.79346</ele>
        <time>2021-09-08T13:34:44.000Z</time>
      </trkpt>
      <trkpt lat="49.09713" lon="7.06746">
        <ele>240.23954</ele>
        <time>2021-09-08T13:34:52.000Z</time>
      </trkpt>
      <trkpt lat="49.0972" lon="7.0677">
        <ele>240.62689</ele>
        <time>2021-09-08T13:35:10.000Z</time>
      </trkpt>
      <trkpt lat="49.09726" lon="7.06778">
        <ele>241.24798</ele>
        <time>2021-09-08T13:35:17.000Z</time>
      </trkpt>
      <trkpt lat="49.09731" lon="7.06787">
        <ele>241.62709</ele>
        <time>2021-09-08T13:35:22.000Z</time>
      </trkpt>
      <trkpt lat="49.09747" lon="7.06799">
        <ele>243.13858</ele>
        <time>2021-09-08T13:35:45.000Z</time>
      </trkpt>
      <trkpt lat="49.09755" lon="7.06822">
        <ele>243.34808</ele>
        <time>2021-09-08T13:36:03.000Z</time>
      </trkpt>
      <trkpt lat="49.09761" lon="7.06831">
        <ele>243.71551</ele>
        <time>2021-09-08T13:36:16.000Z</time>
      </trkpt>
      <trkpt lat="49.09769" lon="7.06836">
        <ele>244.49667</ele>
        <time>2021-09-08T13:37:14.000Z</time>
      </trkpt>
      <trkpt lat="49.09764" lon="7.06845">
        <ele>243.62515</ele>
        <time>2021-09-08T13:37:24.000Z</time>
      </trkpt>
      <trkpt lat="49.09758" lon="7.06853">
        <ele>242.7788</ele>
        <time>2021-09-08T13:37:34.000Z</time>
      </trkpt>
      <trkpt lat="49.09751" lon="7.06859">
        <ele>241.80081</ele>
        <time>2021-09-08T13:37:40.000Z</time>
      </trkpt>
      <trkpt lat="49.09745" lon="7.06869">
        <ele>240.96105</ele>
        <time>2021-09-08T13:37:52.000Z</time>
      </trkpt>
      <trkpt lat="49.09729" lon="7.0688">
        <ele>238.81525</ele>
        <time>2021-09-08T13:38:08.000Z</time>
      </trkpt>
      <trkpt lat="49.09725" lon="7.0689">
        <ele>238.13678</ele>
        <time>2021-09-08T13:38:14.000Z</time>
      </trkpt>
      <trkpt lat="49.09719" lon="7.06895">
        <ele>237.35384</ele>
        <time>2021-09-08T13:38:21.000Z</time>
      </trkpt>
      <trkpt lat="49.09709" lon="7.06916">
        <ele>235.90751</ele>
        <time>2021-09-08T13:38:35.000Z</time>
      </trkpt>
      <trkpt lat="49.09704" lon="7.06925">
        <ele>235.19079</ele>
        <time>2021-09-08T13:38:44.000Z</time>
      </trkpt>
      <trkpt lat="49.09696" lon="7.06932">
        <ele>234.20959</ele>
        <time>2021-09-08T13:38:49.000Z</time>
      </trkpt>
      <trkpt lat="49.09693" lon="7.06945">
        <ele>233.83191</ele>
        <time>2021-09-08T13:38:56.000Z</time>
      </trkpt>
      <trkpt lat="49.09686" lon="7.06954">
        <ele>233.10101</ele>
        <time>2021-09-08T13:39:02.000Z</time>
      </trkpt>
      <trkpt lat="49.09682" lon="7.06965">
        <ele>232.59738</ele>
        <time>2021-09-08T13:39:07.000Z</time>
      </trkpt>
      <trkpt lat="49.09679" lon="7.06989">
        <ele>232.40857</ele>
        <time>2021-09-08T13:39:22.000Z</time>
      </trkpt>
      <trkpt lat="49.09676" lon="7.07001">
        <ele>232.11057</ele>
        <time>2021-09-08T13:39:30.000Z</time>
      </trkpt>
      <trkpt lat="49.09666" lon="7.07039">
        <ele>231.17495</ele>
        <time>2021-09-08T13:39:43.000Z</time>
      </trkpt>
      <trkpt lat="49.09664" lon="7.07052">
        <ele>230.96363</ele>
        <time>2021-09-08T13:41:04.000Z</time>
      </trkpt>
      <trkpt lat="49.09671" lon="7.07057">
        <ele>231.92704</ele>
        <time>2021-09-08T13:41:33.000Z</time>
      </trkpt>
      <trkpt lat="49.09686" lon="7.07069">
        <ele>233.72233</ele>
        <time>2021-09-08T13:41:46.000Z</time>
      </trkpt>
      <trkpt lat="49.09703" lon="7.07074">
        <ele>235.50821</ele>
        <time>2021-09-08T13:42:13.000Z</time>
      </trkpt>
      <trkpt lat="49.09718" lon="7.07092">
        <ele>237.02823</ele>
        <time>2021-09-08T13:42:59.000Z</time>
      </trkpt>
      <trkpt lat="49.09725" lon="7.07101">
        <ele>237.6496</ele>
        <time>2021-09-08T13:43:09.000Z</time>
      </trkpt>
      <trkpt lat="49.09734" lon="7.07116">
        <ele>238.52866</ele>
        <time>2021-09-08T13:43:27.000Z</time>
      </trkpt>
      <trkpt lat="49.09757" lon="7.07144">
        <ele>241.48554</ele>
        <time>2021-09-08T13:44:15.000Z</time>
      </trkpt>
      <trkpt lat="49.09772" lon="7.0713">
        <ele>241.97318</ele>
        <time>2021-09-08T13:45:20.000Z</time>
      </trkpt>
      <trkpt lat="49.09778" lon="7.07156">
        <ele>242.836</ele>
        <time>2021-09-08T13:45:20.000Z</time>
      </trkpt>
      <trkpt lat="49.09781" lon="7.07167">
        <ele>243.08131</ele>
        <time>2021-09-08T13:45:20.000Z</time>
      </trkpt>
      <trkpt lat="49.09784" lon="7.07172">
        <ele>243.19028</ele>
        <time>2021-09-08T13:45:20.000Z</time>
      </trkpt>
      <trkpt lat="49.09786" lon="7.07178">
        <ele>243.22881</ele>
      </trkpt>
      <trkpt lat="49.09786" lon="7.07184">
        <ele>243.20055</ele>
      </trkpt>
      <trkpt lat="49.09783" lon="7.07184">
        <ele>243.16024</ele>
      </trkpt>
      <trkpt lat="49.0978" lon="7.07177">
        <ele>243.1114</ele>
      </trkpt>
      <trkpt lat="49.0977" lon="7.07136">
        <ele>242.01338</ele>
      </trkpt>
      <trkpt lat="49.09753" lon="7.07152">
        <ele>241.46757</ele>
      </trkpt>
      <trkpt lat="49.09733" lon="7.07161">
        <ele>239.9653</ele>
      </trkpt>
      <trkpt lat="49.0972" lon="7.07159">
        <ele>238.08933</ele>
      </trkpt>
      <trkpt lat="49.09708" lon="7.07167">
        <ele>236.55449</ele>
      </trkpt>
      <trkpt lat="49.09699" lon="7.07165">
        <ele>235.34367</ele>
      </trkpt>
      <trkpt lat="49.0969" lon="7.07162">
        <ele>234.12186</ele>
      </trkpt>
      <trkpt lat="49.09675" lon="7.0717">
        <ele>232.03446</ele>
      </trkpt>
      <trkpt lat="49.09661" lon="7.07178">
        <ele>230.05837</ele>
      </trkpt>
      <trkpt lat="49.09649" lon="7.07184">
        <ele>228.42772</ele>
      </trkpt>
      <trkpt lat="49.09639" lon="7.07192">
        <ele>227.09284</ele>
      </trkpt>
      <trkpt lat="49.09632" lon="7.07197">
        <ele>226.21801</ele>
      </trkpt>
      <trkpt lat="49.09625" lon="7.07201">
        <ele>225.3478</ele>
      </trkpt>
      <trkpt lat="49.09615" lon="7.07209">
        <ele>224.11147</ele>
      </trkpt>
      <trkpt lat="49.09603" lon="7.0722">
        <ele>222.61195</ele>
      </trkpt>
      <trkpt lat="49.09588" lon="7.07233">
        <ele>220.82261</ele>
      </trkpt>
      <trkpt lat="49.09585" lon="7.07248">
        <ele>219.91964</ele>
      </trkpt>
      <trkpt lat="49.09584" lon="7.07263">
        <ele>218.96684</ele>
      </trkpt>
      <trkpt lat="49.0958" lon="7.07273">
        <ele>217.9761</ele>
      </trkpt>
      <trkpt lat="49.09579" lon="7.07286">
        <ele>216.97314</ele>
      </trkpt>
      <trkpt lat="49.09578" lon="7.07297">
        <ele>216.1553</ele>
      </trkpt>
      <trkpt lat="49.09577" lon="7.0731">
        <ele>215.05097</ele>
      </trkpt>
      <trkpt lat="49.09575" lon="7.0732">
        <ele>214.18953</ele>
      </trkpt>
      <trkpt lat="49.09572" lon="7.07339">
        <ele>212.82307</ele>
      </trkpt>
      <trkpt lat="49.09568" lon="7.07363">
        <ele>211.50806</ele>
      </trkpt>
      <trkpt lat="49.09567" lon="7.07377">
        <ele>211.10911</ele>
      </trkpt>
      <trkpt lat="49.09574" lon="7.07416">
        <ele>210.8047</ele>
      </trkpt>
      <trkpt lat="49.09557" lon="7.074">
        <ele>210.29691</ele>
      </trkpt>
      <trkpt lat="49.09549" lon="7.07397">
        <ele>210.24216</ele>
      </trkpt>
      <trkpt lat="49.09532" lon="7.07387">
        <ele>210.23865</ele>
      </trkpt>
      <trkpt lat="49.09521" lon="7.07382">
        <ele>210.23951</ele>
      </trkpt>
      <trkpt lat="49.09512" lon="7.07378">
        <ele>210.23681</ele>
      </trkpt>
      <trkpt lat="49.09489" lon="7.07364">
        <ele>210.22132</ele>
      </trkpt>
      <trkpt lat="49.0943" lon="7.0733">
        <ele>210.93787</ele>
      </trkpt>
      <trkpt lat="49.094" lon="7.07313">
        <ele>211.94854</ele>
      </trkpt>
      <trkpt lat="49.09357" lon="7.07284">
        <ele>211.98792</ele>
      </trkpt>
      <trkpt lat="49.09326" lon="7.07264">
        <ele>211.09193</ele>
      </trkpt>
      <trkpt lat="49.09314" lon="7.07257">
        <ele>210.83523</ele>
      </trkpt>
      <trkpt lat="49.09249" lon="7.07219">
        <ele>211.34179</ele>
      </trkpt>
      <trkpt lat="49.09211" lon="7.07198">
        <ele>212.29194</ele>
      </trkpt>
      <trkpt lat="49.09172" lon="7.07182">
        <ele>213.07898</ele>
      </trkpt>
      <trkpt lat="49.0915" lon="7.0717">
        <ele>213.91696</ele>
      </trkpt>
      <trkpt lat="49.09133" lon="7.07162">
        <ele>214.69078</ele>
      </trkpt>
      <trkpt lat="49.09119" lon="7.07154">
        <ele>215.47288</ele>
      </trkpt>
      <trkpt lat="49.09106" lon="7.07148">
        <ele>216.0948</ele>
      </trkpt>
      <trkpt lat="49.09077" lon="7.07133">
        <ele>217.62182</ele>
      </trkpt>
      <trkpt lat="49.09063" lon="7.07126">
        <ele>218.38266</ele>
      </trkpt>
      <trkpt lat="49.0905" lon="7.0712">
        <ele>218.98295</ele>
      </trkpt>
      <trkpt lat="49.09032" lon="7.07112">
        <ele>219.69369</ele>
      </trkpt>
      <trkpt lat="49.09017" lon="7.07105">
        <ele>220.28262</ele>
      </trkpt>
      <trkpt lat="49.09009" lon="7.07097">
        <ele>220.86375</ele>
      </trkpt>
      <trkpt lat="49.08999" lon="7.07093">
        <ele>221.08617</ele>
      </trkpt>
      <trkpt lat="49.08986" lon="7.07087">
        <ele>221.19471</ele>
      </trkpt>
      <trkpt lat="49.08979" lon="7.07079">
        <ele>221.64739</ele>
      </trkpt>
      <trkpt lat="49.08971" lon="7.07076">
        <ele>221.50303</ele>
      </trkpt>
      <trkpt lat="49.08959" lon="7.07059">
        <ele>222.33808</ele>
      </trkpt>
      <trkpt lat="49.08952" lon="7.07051">
        <ele>222.4466</ele>
      </trkpt>
      <trkpt lat="49.08947" lon="7.07041">
        <ele>222.89434</ele>
      </trkpt>
      <trkpt lat="49.0894" lon="7.07033">
        <ele>222.88299</ele>
      </trkpt>
      <trkpt lat="49.08926" lon="7.07018">
        <ele>222.54425</ele>
      </trkpt>
      <trkpt lat="49.08916" lon="7.07005">
        <ele>222.18739</ele>
      </trkpt>
      <trkpt lat="49.0891" lon="7.06998">
        <ele>221.72754</ele>
      </trkpt>
      <trkpt lat="49.08898" lon="7.06986">
        <ele>220.85756</ele>
      </trkpt>
      <trkpt lat="49.08886" lon="7.06972">
        <ele>219.86945</ele>
      </trkpt>
      <trkpt lat="49.08873" lon="7.06957">
        <ele>218.9245</ele>
      </trkpt>
      <trkpt lat="49.08866" lon="7.06949">
        <ele>218.37777</ele>
      </trkpt>
      <trkpt lat="49.08849" lon="7.06931">
        <ele>217.21099</ele>
      </trkpt>
      <trkpt lat="49.0882" lon="7.06894">
        <ele>215.97368</ele>
      </trkpt>
      <trkpt lat="49.08815" lon="7.06888">
        <ele>215.80246</ele>
      </trkpt>
      <trkpt lat="49.08808" lon="7.0688">
        <ele>215.49113</ele>
      </trkpt>
      <trkpt lat="49.08801" lon="7.06875">
        <ele>215.11549</ele>
      </trkpt>
      <trkpt lat="49.08787" lon="7.06873">
        <ele>214.24602</ele>
      </trkpt>
      <trkpt lat="49.08761" lon="7.06888">
        <ele>212.80469</ele>
      </trkpt>
      <trkpt lat="49.08754" lon="7.06895">
        <ele>212.55864</ele>
      </trkpt>
      <trkpt lat="49.08738" lon="7.06903">
        <ele>212.41241</ele>
      </trkpt>
      <trkpt lat="49.08729" lon="7.06906">
        <ele>212.49826</ele>
      </trkpt>
      <trkpt lat="49.0872" lon="7.06905">
        <ele>212.67074</ele>
      </trkpt>
      <trkpt lat="49.08712" lon="7.0691">
        <ele>212.84101</ele>
      </trkpt>
      <trkpt lat="49.08703" lon="7.0691">
        <ele>213.05562</ele>
      </trkpt>
      <trkpt lat="49.08695" lon="7.06906">
        <ele>213.26226</ele>
      </trkpt>
      <trkpt lat="49.0868" lon="7.06893">
        <ele>213.57987</ele>
      </trkpt>
      <trkpt lat="49.08667" lon="7.06874">
        <ele>213.77221</ele>
      </trkpt>
      <trkpt lat="49.08661" lon="7.0687">
        <ele>213.83213</ele>
      </trkpt>
      <trkpt lat="49.08656" lon="7.06865">
        <ele>213.87505</ele>
      </trkpt>
      <trkpt lat="49.08644" lon="7.06832">
        <ele>214.10691</ele>
      </trkpt>
      <trkpt lat="49.08639" lon="7.06825">
        <ele>214.1827</ele>
      </trkpt>
      <trkpt lat="49.08636" lon="7.06816">
        <ele>214.28389</ele>
      </trkpt>
      <trkpt lat="49.08624" lon="7.06797">
        <ele>214.51454</ele>
      </trkpt>
      <trkpt lat="49.08618" lon="7.06789">
        <ele>214.62902</ele>
      </trkpt>
      <trkpt lat="49.0861" lon="7.06784">
        <ele>214.69188</ele>
      </trkpt>
      <trkpt lat="49.08604" lon="7.06774">
        <ele>214.8336</ele>
      </trkpt>
      <trkpt lat="49.08597" lon="7.0675">
        <ele>215.24365</ele>
      </trkpt>
      <trkpt lat="49.0859" lon="7.06744">
        <ele>215.35393</ele>
      </trkpt>
      <trkpt lat="49.08588" lon="7.06736">
        <ele>215.52673</ele>
      </trkpt>
      <trkpt lat="49.08571" lon="7.06719">
        <ele>215.886</ele>
      </trkpt>
      <trkpt lat="49.0856" lon="7.06699">
        <ele>216.39185</ele>
      </trkpt>
      <trkpt lat="49.0856" lon="7.06688">
        <ele>216.63987</ele>
      </trkpt>
      <trkpt lat="49.08551" lon="7.0668">
        <ele>216.82449</ele>
      </trkpt>
      <trkpt lat="49.08547" lon="7.06669">
        <ele>217.02468</ele>
      </trkpt>
      <trkpt lat="49.08539" lon="7.06667">
        <ele>217.06702</ele>
      </trkpt>
      <trkpt lat="49.08536" lon="7.06657">
        <ele>217.17575</ele>
      </trkpt>
      <trkpt lat="49.08531" lon="7.06647">
        <ele>217.23832</ele>
      </trkpt>
      <trkpt lat="49.08528" lon="7.06634">
        <ele>217.29691</ele>
      </trkpt>
      <trkpt lat="49.08528" lon="7.06622">
        <ele>217.38207</ele>
      </trkpt>
      <trkpt lat="49.08503" lon="7.06585">
        <ele>217.32593</ele>
      </trkpt>
      <trkpt lat="49.08496" lon="7.06595">
        <ele>217.04655</ele>
      </trkpt>
      <trkpt lat="49.08492" lon="7.06604">
        <ele>216.93953</ele>
      </trkpt>
      <trkpt lat="49.08485" lon="7.06611">
        <ele>216.86906</ele>
      </trkpt>
      <trkpt lat="49.0848" lon="7.06622">
        <ele>216.8939</ele>
      </trkpt>
      <trkpt lat="49.08474" lon="7.06632">
        <ele>216.93921</ele>
      </trkpt>
      <trkpt lat="49.08461" lon="7.06649">
        <ele>217.04259</ele>
      </trkpt>
      <trkpt lat="49.08456" lon="7.06656">
        <ele>217.2</ele>
      </trkpt>
    </trkseg>
  </trk>
</gpx>